sensor_id;sensor_type;location;lat;lon;timestamp;P1;durP1;ratioP1;P2;durP2;ratioP2
56122;SDS011;42426;46.104;19.656;2023-02-14T00:00:16;49.28;;;24.33;;
56122;SDS011;42426;46.104;19.656;2023-02-14T00:02:44;48.17;;;26.60;;
56122;SDS011;42426;46.104;19.656;2023-02-14T00:05:09;36.72;;;22.50;;
56122;SDS011;42426;46.104;19.656;2023-02-14T00:07:36;45.78;;;22.85;;
56122;SDS011;42426;46.104;19.656;2023-02-14T00:10:02;42.67;;;22.20;;
56122;SDS011;42426;46.104;19.656;2023-02-14T00:12:27;39.47;;;22.00;;
56122;SDS011;42426;46.104;19.656;2023-02-14T00:14:53;39.88;;;21.95;;
56122;SDS011;42426;46.104;19.656;2023-02-14T00:17:38;39.92;;;22.42;;
56122;SDS011;42426;46.104;19.656;2023-02-14T00:20:03;38.97;;;20.75;;
56122;SDS011;42426;46.104;19.656;2023-02-14T00:22:30;32.00;;;18.55;;
56122;SDS011;42426;46.104;19.656;2023-02-14T00:24:55;28.83;;;15.82;;
56122;SDS011;42426;46.104;19.656;2023-02-14T00:27:22;29.10;;;16.48;;
56122;SDS011;42426;46.104;19.656;2023-02-14T00:29:47;27.33;;;15.65;;
56122;SDS011;42426;46.104;19.656;2023-02-14T00:32:15;27.80;;;16.98;;
56122;SDS011;42426;46.104;19.656;2023-02-14T00:34:41;29.65;;;15.20;;
56122;SDS011;42426;46.104;19.656;2023-02-14T00:37:06;28.50;;;15.05;;
56122;SDS011;42426;46.104;19.656;2023-02-14T00:39:32;30.17;;;14.55;;
56122;SDS011;42426;46.104;19.656;2023-02-14T00:41:58;29.25;;;15.20;;
56122;SDS011;42426;46.104;19.656;2023-02-14T00:44:24;32.13;;;16.33;;
56122;SDS011;42426;46.104;19.656;2023-02-14T00:46:49;33.72;;;16.38;;
56122;SDS011;42426;46.104;19.656;2023-02-14T00:49:16;35.70;;;16.17;;
56122;SDS011;42426;46.104;19.656;2023-02-14T00:51:41;39.60;;;16.88;;
56122;SDS011;42426;46.104;19.656;2023-02-14T00:54:07;35.25;;;15.95;;
56122;SDS011;42426;46.104;19.656;2023-02-14T00:56:33;33.90;;;17.08;;
56122;SDS011;42426;46.104;19.656;2023-02-14T00:58:59;27.75;;;15.85;;
56122;SDS011;42426;46.104;19.656;2023-02-14T01:01:24;28.75;;;14.88;;
56122;SDS011;42426;46.104;19.656;2023-02-14T01:03:50;31.02;;;14.63;;
56122;SDS011;42426;46.104;19.656;2023-02-14T01:06:16;29.98;;;15.82;;
56122;SDS011;42426;46.104;19.656;2023-02-14T01:08:41;28.73;;;14.90;;
56122;SDS011;42426;46.104;19.656;2023-02-14T01:11:14;27.58;;;13.52;;
56122;SDS011;42426;46.104;19.656;2023-02-14T01:13:43;25.13;;;13.48;;
56122;SDS011;42426;46.104;19.656;2023-02-14T01:16:11;27.08;;;14.00;;
56122;SDS011;42426;46.104;19.656;2023-02-14T01:18:39;22.73;;;13.45;;
56122;SDS011;42426;46.104;19.656;2023-02-14T01:23:47;21.83;;;12.02;;
56122;SDS011;42426;46.104;19.656;2023-02-14T01:26:15;25.45;;;13.43;;
56122;SDS011;42426;46.104;19.656;2023-02-14T01:28:42;20.33;;;12.60;;
56122;SDS011;42426;46.104;19.656;2023-02-14T01:31:11;25.60;;;13.75;;
56122;SDS011;42426;46.104;19.656;2023-02-14T01:33:42;25.15;;;13.25;;
56122;SDS011;42426;46.104;19.656;2023-02-14T01:38:52;28.20;;;13.65;;
56122;SDS011;42426;46.104;19.656;2023-02-14T01:41:20;28.88;;;14.05;;
56122;SDS011;42426;46.104;19.656;2023-02-14T01:46:17;25.30;;;14.10;;
56122;SDS011;42426;46.104;19.656;2023-02-14T01:48:43;24.75;;;12.77;;
56122;SDS011;42426;46.104;19.656;2023-02-14T01:51:09;28.70;;;15.25;;
56122;SDS011;42426;46.104;19.656;2023-02-14T01:53:35;27.73;;;14.05;;
56122;SDS011;42426;46.104;19.656;2023-02-14T01:56:02;29.95;;;14.65;;
56122;SDS011;42426;46.104;19.656;2023-02-14T01:58:35;30.25;;;15.32;;
56122;SDS011;42426;46.104;19.656;2023-02-14T02:01:04;27.00;;;13.68;;
56122;SDS011;42426;46.104;19.656;2023-02-14T02:08:48;22.58;;;12.80;;
56122;SDS011;42426;46.104;19.656;2023-02-14T02:11:23;26.15;;;13.88;;
56122;SDS011;42426;46.104;19.656;2023-02-14T02:13:50;27.50;;;14.80;;
56122;SDS011;42426;46.104;19.656;2023-02-14T02:16:20;26.95;;;14.13;;
56122;SDS011;42426;46.104;19.656;2023-02-14T02:33:40;24.42;;;13.30;;
56122;SDS011;42426;46.104;19.656;2023-02-14T02:42:12;23.65;;;14.10;;
56122;SDS011;42426;46.104;19.656;2023-02-14T02:52:43;25.42;;;13.68;;
56122;SDS011;42426;46.104;19.656;2023-02-14T02:58:34;19.60;;;11.20;;
56122;SDS011;42426;46.104;19.656;2023-02-14T03:01:08;23.10;;;11.95;;
56122;SDS011;42426;46.104;19.656;2023-02-14T03:06:23;27.02;;;13.55;;
56122;SDS011;42426;46.104;19.656;2023-02-14T03:08:49;28.15;;;13.48;;
56122;SDS011;42426;46.104;19.656;2023-02-14T03:11:15;30.23;;;15.30;;
56122;SDS011;42426;46.104;19.656;2023-02-14T03:16:32;26.10;;;13.27;;
56122;SDS011;42426;46.104;19.656;2023-02-14T03:28:02;24.77;;;14.77;;
56122;SDS011;42426;46.104;19.656;2023-02-14T03:31:00;23.98;;;13.13;;
56122;SDS011;42426;46.104;19.656;2023-02-14T03:33:31;22.60;;;13.35;;
56122;SDS011;42426;46.104;19.656;2023-02-14T03:36:08;24.65;;;13.30;;
56122;SDS011;42426;46.104;19.656;2023-02-14T03:41:45;27.10;;;13.98;;
56122;SDS011;42426;46.104;19.656;2023-02-14T03:44:20;27.10;;;14.55;;
56122;SDS011;42426;46.104;19.656;2023-02-14T03:46:54;26.00;;;14.40;;
56122;SDS011;42426;46.104;19.656;2023-02-14T03:49:27;26.98;;;15.25;;
56122;SDS011;42426;46.104;19.656;2023-02-14T03:51:56;24.70;;;15.15;;
56122;SDS011;42426;46.104;19.656;2023-02-14T03:54:24;26.90;;;13.85;;
56122;SDS011;42426;46.104;19.656;2023-02-14T03:56:54;25.48;;;12.55;;
56122;SDS011;42426;46.104;19.656;2023-02-14T03:59:28;21.08;;;11.23;;
56122;SDS011;42426;46.104;19.656;2023-02-14T04:02:14;26.13;;;12.98;;
56122;SDS011;42426;46.104;19.656;2023-02-14T04:04:47;22.52;;;13.15;;
56122;SDS011;42426;46.104;19.656;2023-02-14T04:07:15;21.75;;;12.65;;
56122;SDS011;42426;46.104;19.656;2023-02-14T04:09:43;22.77;;;13.27;;
56122;SDS011;42426;46.104;19.656;2023-02-14T04:12:09;23.45;;;13.15;;
56122;SDS011;42426;46.104;19.656;2023-02-14T04:14:35;26.02;;;14.35;;
56122;SDS011;42426;46.104;19.656;2023-02-14T04:17:01;25.52;;;14.65;;
56122;SDS011;42426;46.104;19.656;2023-02-14T04:19:46;30.00;;;15.88;;
56122;SDS011;42426;46.104;19.656;2023-02-14T04:22:11;23.83;;;13.00;;
56122;SDS011;42426;46.104;19.656;2023-02-14T04:24:37;23.23;;;14.18;;
56122;SDS011;42426;46.104;19.656;2023-02-14T04:27:04;23.73;;;14.10;;
56122;SDS011;42426;46.104;19.656;2023-02-14T04:29:46;28.67;;;14.97;;
56122;SDS011;42426;46.104;19.656;2023-02-14T04:32:14;33.15;;;16.02;;
56122;SDS011;42426;46.104;19.656;2023-02-14T04:34:42;24.88;;;14.25;;
56122;SDS011;42426;46.104;19.656;2023-02-14T04:37:08;29.25;;;15.45;;
56122;SDS011;42426;46.104;19.656;2023-02-14T04:39:34;29.15;;;15.90;;
56122;SDS011;42426;46.104;19.656;2023-02-14T04:42:01;29.17;;;15.73;;
56122;SDS011;42426;46.104;19.656;2023-02-14T04:44:27;27.83;;;14.60;;
56122;SDS011;42426;46.104;19.656;2023-02-14T04:46:53;28.33;;;16.45;;
56122;SDS011;42426;46.104;19.656;2023-02-14T04:49:19;29.20;;;17.10;;
56122;SDS011;42426;46.104;19.656;2023-02-14T04:51:45;28.98;;;17.05;;
56122;SDS011;42426;46.104;19.656;2023-02-14T04:54:11;30.73;;;17.13;;
56122;SDS011;42426;46.104;19.656;2023-02-14T04:56:36;28.60;;;16.48;;
56122;SDS011;42426;46.104;19.656;2023-02-14T04:59:04;27.73;;;15.20;;
56122;SDS011;42426;46.104;19.656;2023-02-14T05:01:30;26.58;;;15.07;;
56122;SDS011;42426;46.104;19.656;2023-02-14T05:03:57;32.88;;;18.35;;
56122;SDS011;42426;46.104;19.656;2023-02-14T05:06:22;35.83;;;18.90;;
56122;SDS011;42426;46.104;19.656;2023-02-14T05:08:48;36.00;;;21.10;;
56122;SDS011;42426;46.104;19.656;2023-02-14T05:11:14;35.00;;;19.60;;
56122;SDS011;42426;46.104;19.656;2023-02-14T05:13:39;37.55;;;22.23;;
56122;SDS011;42426;46.104;19.656;2023-02-14T05:16:05;34.13;;;18.92;;
56122;SDS011;42426;46.104;19.656;2023-02-14T05:18:31;30.38;;;18.98;;
56122;SDS011;42426;46.104;19.656;2023-02-14T05:20:57;31.67;;;19.15;;
56122;SDS011;42426;46.104;19.656;2023-02-14T05:23:22;28.33;;;17.23;;
56122;SDS011;42426;46.104;19.656;2023-02-14T05:25:48;31.10;;;18.92;;
56122;SDS011;42426;46.104;19.656;2023-02-14T05:28:15;30.35;;;16.65;;
56122;SDS011;42426;46.104;19.656;2023-02-14T05:30:42;29.45;;;17.58;;
56122;SDS011;42426;46.104;19.656;2023-02-14T05:33:08;32.05;;;17.48;;
56122;SDS011;42426;46.104;19.656;2023-02-14T05:35:33;30.75;;;18.52;;
56122;SDS011;42426;46.104;19.656;2023-02-14T05:37:59;42.05;;;19.25;;
56122;SDS011;42426;46.104;19.656;2023-02-14T05:40:25;35.08;;;18.17;;
56122;SDS011;42426;46.104;19.656;2023-02-14T05:42:53;30.88;;;16.75;;
56122;SDS011;42426;46.104;19.656;2023-02-14T05:45:19;33.10;;;16.73;;
56122;SDS011;42426;46.104;19.656;2023-02-14T05:47:46;31.75;;;16.40;;
56122;SDS011;42426;46.104;19.656;2023-02-14T05:50:12;29.55;;;16.80;;
56122;SDS011;42426;46.104;19.656;2023-02-14T05:52:39;33.63;;;16.85;;
56122;SDS011;42426;46.104;19.656;2023-02-14T05:55:05;31.95;;;17.27;;
56122;SDS011;42426;46.104;19.656;2023-02-14T05:57:31;35.88;;;18.52;;
56122;SDS011;42426;46.104;19.656;2023-02-14T05:59:57;28.88;;;17.52;;
56122;SDS011;42426;46.104;19.656;2023-02-14T06:02:22;29.83;;;17.85;;
56122;SDS011;42426;46.104;19.656;2023-02-14T06:04:49;29.70;;;18.27;;
56122;SDS011;42426;46.104;19.656;2023-02-14T06:07:15;28.10;;;17.23;;
56122;SDS011;42426;46.104;19.656;2023-02-14T06:09:42;29.75;;;18.58;;
56122;SDS011;42426;46.104;19.656;2023-02-14T06:12:08;35.13;;;18.80;;
56122;SDS011;42426;46.104;19.656;2023-02-14T06:14:34;31.40;;;17.70;;
56122;SDS011;42426;46.104;19.656;2023-02-14T06:16:59;41.97;;;19.42;;
56122;SDS011;42426;46.104;19.656;2023-02-14T06:19:26;35.20;;;17.67;;
56122;SDS011;42426;46.104;19.656;2023-02-14T06:21:52;41.78;;;27.75;;
56122;SDS011;42426;46.104;19.656;2023-02-14T06:24:18;58.75;;;37.40;;
56122;SDS011;42426;46.104;19.656;2023-02-14T06:26:43;51.33;;;30.33;;
56122;SDS011;42426;46.104;19.656;2023-02-14T06:29:09;47.65;;;33.83;;
56122;SDS011;42426;46.104;19.656;2023-02-14T06:31:34;57.65;;;37.45;;
56122;SDS011;42426;46.104;19.656;2023-02-14T06:34:02;47.78;;;29.55;;
56122;SDS011;42426;46.104;19.656;2023-02-14T06:36:28;48.53;;;30.00;;
56122;SDS011;42426;46.104;19.656;2023-02-14T06:38:53;44.03;;;24.58;;
56122;SDS011;42426;46.104;19.656;2023-02-14T06:41:19;35.88;;;22.25;;
56122;SDS011;42426;46.104;19.656;2023-02-14T06:43:45;34.15;;;19.42;;
56122;SDS011;42426;46.104;19.656;2023-02-14T06:46:15;34.90;;;20.17;;
56122;SDS011;42426;46.104;19.656;2023-02-14T06:48:41;33.13;;;20.75;;
56122;SDS011;42426;46.104;19.656;2023-02-14T06:51:08;33.88;;;20.05;;
56122;SDS011;42426;46.104;19.656;2023-02-14T06:53:34;39.88;;;21.65;;
56122;SDS011;42426;46.104;19.656;2023-02-14T06:56:01;34.45;;;19.40;;
56122;SDS011;42426;46.104;19.656;2023-02-14T06:58:27;33.15;;;18.88;;
56122;SDS011;42426;46.104;19.656;2023-02-14T07:00:54;25.23;;;15.73;;
56122;SDS011;42426;46.104;19.656;2023-02-14T07:03:20;31.17;;;16.48;;
56122;SDS011;42426;46.104;19.656;2023-02-14T07:05:46;26.90;;;14.77;;
56122;SDS011;42426;46.104;19.656;2023-02-14T07:08:12;22.83;;;14.32;;
56122;SDS011;42426;46.104;19.656;2023-02-14T07:10:37;26.48;;;15.43;;
56122;SDS011;42426;46.104;19.656;2023-02-14T07:13:03;24.45;;;14.43;;
56122;SDS011;42426;46.104;19.656;2023-02-14T07:15:29;22.98;;;15.38;;
56122;SDS011;42426;46.104;19.656;2023-02-14T07:17:55;23.42;;;14.05;;
56122;SDS011;42426;46.104;19.656;2023-02-14T07:20:22;25.17;;;15.80;;
56122;SDS011;42426;46.104;19.656;2023-02-14T07:22:48;28.90;;;15.15;;
56122;SDS011;42426;46.104;19.656;2023-02-14T07:25:14;24.52;;;13.70;;
56122;SDS011;42426;46.104;19.656;2023-02-14T07:27:39;21.73;;;13.80;;
56122;SDS011;42426;46.104;19.656;2023-02-14T07:30:06;26.05;;;15.85;;
56122;SDS011;42426;46.104;19.656;2023-02-14T07:32:33;28.45;;;15.13;;
56122;SDS011;42426;46.104;19.656;2023-02-14T07:34:58;24.15;;;14.77;;
56122;SDS011;42426;46.104;19.656;2023-02-14T07:37:24;24.67;;;15.20;;
56122;SDS011;42426;46.104;19.656;2023-02-14T07:39:50;26.55;;;14.65;;
56122;SDS011;42426;46.104;19.656;2023-02-14T07:42:15;27.67;;;15.95;;
56122;SDS011;42426;46.104;19.656;2023-02-14T07:44:41;29.90;;;16.67;;
56122;SDS011;42426;46.104;19.656;2023-02-14T07:47:08;24.88;;;15.88;;
56122;SDS011;42426;46.104;19.656;2023-02-14T07:49:34;29.77;;;15.07;;
56122;SDS011;42426;46.104;19.656;2023-02-14T07:52:00;27.85;;;14.40;;
56122;SDS011;42426;46.104;19.656;2023-02-14T07:54:26;25.17;;;15.27;;
56122;SDS011;42426;46.104;19.656;2023-02-14T07:56:52;24.15;;;14.20;;
56122;SDS011;42426;46.104;19.656;2023-02-14T07:59:18;30.40;;;18.70;;
56122;SDS011;42426;46.104;19.656;2023-02-14T08:01:44;27.35;;;15.73;;
56122;SDS011;42426;46.104;19.656;2023-02-14T08:04:10;28.27;;;15.65;;
56122;SDS011;42426;46.104;19.656;2023-02-14T08:06:40;29.63;;;16.77;;
56122;SDS011;42426;46.104;19.656;2023-02-14T08:09:07;29.98;;;16.38;;
56122;SDS011;42426;46.104;19.656;2023-02-14T08:11:34;30.15;;;17.00;;
56122;SDS011;42426;46.104;19.656;2023-02-14T08:14:19;27.35;;;14.93;;
56122;SDS011;42426;46.104;19.656;2023-02-14T08:16:45;25.35;;;15.85;;
56122;SDS011;42426;46.104;19.656;2023-02-14T08:19:11;33.00;;;18.20;;
56122;SDS011;42426;46.104;19.656;2023-02-14T08:21:37;29.95;;;17.33;;
56122;SDS011;42426;46.104;19.656;2023-02-14T08:24:02;27.35;;;17.52;;
56122;SDS011;42426;46.104;19.656;2023-02-14T08:26:28;31.15;;;16.40;;
56122;SDS011;42426;46.104;19.656;2023-02-14T08:28:54;26.27;;;16.35;;
56122;SDS011;42426;46.104;19.656;2023-02-14T08:31:29;27.35;;;15.90;;
56122;SDS011;42426;46.104;19.656;2023-02-14T08:33:55;29.05;;;15.32;;
56122;SDS011;42426;46.104;19.656;2023-02-14T08:36:23;27.13;;;15.82;;
56122;SDS011;42426;46.104;19.656;2023-02-14T08:38:49;29.85;;;15.90;;
56122;SDS011;42426;46.104;19.656;2023-02-14T08:41:16;23.42;;;15.20;;
56122;SDS011;42426;46.104;19.656;2023-02-14T08:43:43;25.13;;;14.77;;
56122;SDS011;42426;46.104;19.656;2023-02-14T08:46:09;29.70;;;15.75;;
56122;SDS011;42426;46.104;19.656;2023-02-14T08:48:36;30.20;;;16.92;;
56122;SDS011;42426;46.104;19.656;2023-02-14T08:51:04;30.45;;;18.30;;
56122;SDS011;42426;46.104;19.656;2023-02-14T08:53:34;36.45;;;17.90;;
56122;SDS011;42426;46.104;19.656;2023-02-14T08:56:10;31.23;;;18.52;;
56122;SDS011;42426;46.104;19.656;2023-02-14T08:58:37;27.95;;;17.45;;
56122;SDS011;42426;46.104;19.656;2023-02-14T09:01:14;29.95;;;16.10;;
56122;SDS011;42426;46.104;19.656;2023-02-14T09:03:41;26.98;;;14.75;;
56122;SDS011;42426;46.104;19.656;2023-02-14T09:06:08;28.70;;;16.80;;
56122;SDS011;42426;46.104;19.656;2023-02-14T09:08:36;25.55;;;14.73;;
56122;SDS011;42426;46.104;19.656;2023-02-14T09:11:07;28.95;;;15.57;;
56122;SDS011;42426;46.104;19.656;2023-02-14T09:13:32;29.80;;;16.75;;
56122;SDS011;42426;46.104;19.656;2023-02-14T09:16:01;33.83;;;19.35;;
56122;SDS011;42426;46.104;19.656;2023-02-14T09:18:31;51.22;;;26.25;;
56122;SDS011;42426;46.104;19.656;2023-02-14T09:20:57;43.70;;;24.70;;
56122;SDS011;42426;46.104;19.656;2023-02-14T09:23:23;59.15;;;31.63;;
56122;SDS011;42426;46.104;19.656;2023-02-14T09:25:48;42.67;;;24.08;;
56122;SDS011;42426;46.104;19.656;2023-02-14T09:28:14;34.58;;;18.77;;
56122;SDS011;42426;46.104;19.656;2023-02-14T09:30:41;30.90;;;16.05;;
56122;SDS011;42426;46.104;19.656;2023-02-14T09:33:07;30.98;;;15.98;;
56122;SDS011;42426;46.104;19.656;2023-02-14T09:35:34;51.10;;;27.40;;
56122;SDS011;42426;46.104;19.656;2023-02-14T09:38:00;42.88;;;23.25;;
56122;SDS011;42426;46.104;19.656;2023-02-14T09:40:41;39.97;;;23.92;;
56122;SDS011;42426;46.104;19.656;2023-02-14T09:43:14;43.15;;;23.65;;
56122;SDS011;42426;46.104;19.656;2023-02-14T09:45:49;79.20;;;47.53;;
56122;SDS011;42426;46.104;19.656;2023-02-14T09:48:29;81.95;;;46.10;;
56122;SDS011;42426;46.104;19.656;2023-02-14T09:51:04;62.67;;;34.75;;
56122;SDS011;42426;46.104;19.656;2023-02-14T09:53:38;52.05;;;27.00;;
56122;SDS011;42426;46.104;19.656;2023-02-14T09:56:19;39.42;;;22.92;;
56122;SDS011;42426;46.104;19.656;2023-02-14T09:58:59;45.60;;;25.05;;
56122;SDS011;42426;46.104;19.656;2023-02-14T10:01:35;36.40;;;22.10;;
56122;SDS011;42426;46.104;19.656;2023-02-14T10:06:51;31.13;;;18.90;;
56122;SDS011;42426;46.104;19.656;2023-02-14T10:12:09;51.40;;;27.75;;
56122;SDS011;42426;46.104;19.656;2023-02-14T10:14:43;41.53;;;22.35;;
56122;SDS011;42426;46.104;19.656;2023-02-14T10:17:21;39.70;;;22.48;;
56122;SDS011;42426;46.104;19.656;2023-02-14T10:19:56;41.78;;;22.58;;
56122;SDS011;42426;46.104;19.656;2023-02-14T10:22:37;33.35;;;18.50;;
56122;SDS011;42426;46.104;19.656;2023-02-14T10:27:45;29.13;;;18.98;;
56122;SDS011;42426;46.104;19.656;2023-02-14T10:30:18;34.08;;;19.23;;
56122;SDS011;42426;46.104;19.656;2023-02-14T10:32:49;33.55;;;18.27;;
56122;SDS011;42426;46.104;19.656;2023-02-14T10:38:14;33.28;;;17.00;;
56122;SDS011;42426;46.104;19.656;2023-02-14T10:49:02;34.60;;;20.45;;
56122;SDS011;42426;46.104;19.656;2023-02-14T10:56:48;33.08;;;18.02;;
56122;SDS011;42426;46.104;19.656;2023-02-14T10:59:25;34.28;;;18.05;;
56122;SDS011;42426;46.104;19.656;2023-02-14T11:01:59;32.72;;;18.33;;
56122;SDS011;42426;46.104;19.656;2023-02-14T11:04:27;40.75;;;20.65;;
56122;SDS011;42426;46.104;19.656;2023-02-14T11:06:55;33.65;;;21.25;;
56122;SDS011;42426;46.104;19.656;2023-02-14T11:09:21;38.90;;;20.77;;
56122;SDS011;42426;46.104;19.656;2023-02-14T11:11:50;37.17;;;19.75;;
56122;SDS011;42426;46.104;19.656;2023-02-14T11:14:25;32.92;;;18.55;;
56122;SDS011;42426;46.104;19.656;2023-02-14T11:16:56;33.70;;;19.30;;
56122;SDS011;42426;46.104;19.656;2023-02-14T11:19:27;35.55;;;18.58;;
56122;SDS011;42426;46.104;19.656;2023-02-14T11:22:03;36.60;;;22.40;;
56122;SDS011;42426;46.104;19.656;2023-02-14T11:24:32;32.83;;;19.02;;
56122;SDS011;42426;46.104;19.656;2023-02-14T11:32:07;29.35;;;18.92;;
56122;SDS011;42426;46.104;19.656;2023-02-14T11:34:41;37.47;;;19.52;;
56122;SDS011;42426;46.104;19.656;2023-02-14T11:39:42;30.98;;;20.05;;
56122;SDS011;42426;46.104;19.656;2023-02-14T11:42:08;39.28;;;21.90;;
56122;SDS011;42426;46.104;19.656;2023-02-14T11:44:36;36.60;;;19.80;;
56122;SDS011;42426;46.104;19.656;2023-02-14T11:47:18;41.60;;;22.73;;
56122;SDS011;42426;46.104;19.656;2023-02-14T11:52:19;41.28;;;21.58;;
56122;SDS011;42426;46.104;19.656;2023-02-14T11:54:50;40.65;;;21.27;;
56122;SDS011;42426;46.104;19.656;2023-02-14T12:05:25;41.15;;;21.88;;
56122;SDS011;42426;46.104;19.656;2023-02-14T12:07:55;39.67;;;22.23;;
56122;SDS011;42426;46.104;19.656;2023-02-14T12:10:33;37.47;;;22.40;;
56122;SDS011;42426;46.104;19.656;2023-02-14T12:23:36;39.83;;;21.95;;
56122;SDS011;42426;46.104;19.656;2023-02-14T12:32:27;42.60;;;23.33;;
56122;SDS011;42426;46.104;19.656;2023-02-14T12:35:11;33.65;;;22.17;;
56122;SDS011;42426;46.104;19.656;2023-02-14T12:57:05;35.58;;;22.40;;
56122;SDS011;42426;46.104;19.656;2023-02-14T12:59:43;32.67;;;20.30;;
56122;SDS011;42426;46.104;19.656;2023-02-14T13:10:40;31.58;;;17.25;;
56122;SDS011;42426;46.104;19.656;2023-02-14T13:14:12;30.10;;;18.33;;
56122;SDS011;42426;46.104;19.656;2023-02-14T13:22:23;35.10;;;19.77;;
56122;SDS011;42426;46.104;19.656;2023-02-14T13:24:51;26.27;;;19.58;;
56122;SDS011;42426;46.104;19.656;2023-02-14T13:27:31;31.85;;;18.52;;
56122;SDS011;42426;46.104;19.656;2023-02-14T13:30:23;36.70;;;18.65;;
56122;SDS011;42426;46.104;19.656;2023-02-14T13:32:54;35.30;;;19.45;;
56122;SDS011;42426;46.104;19.656;2023-02-14T13:35:26;55.53;;;30.45;;
56122;SDS011;42426;46.104;19.656;2023-02-14T13:37:55;60.72;;;32.15;;
56122;SDS011;42426;46.104;19.656;2023-02-14T13:40:24;34.15;;;20.33;;
56122;SDS011;42426;46.104;19.656;2023-02-14T13:42:53;126.88;;;72.00;;
56122;SDS011;42426;46.104;19.656;2023-02-14T14:01:35;68.43;;;37.28;;
56122;SDS011;42426;46.104;19.656;2023-02-14T14:20:02;32.78;;;19.33;;
56122;SDS011;42426;46.104;19.656;2023-02-14T14:22:49;41.00;;;23.55;;
56122;SDS011;42426;46.104;19.656;2023-02-14T14:25:32;36.38;;;22.95;;
56122;SDS011;42426;46.104;19.656;2023-02-14T14:28:18;27.83;;;17.10;;
56122;SDS011;42426;46.104;19.656;2023-02-14T14:30:49;27.38;;;17.67;;
56122;SDS011;42426;46.104;19.656;2023-02-14T14:35:56;38.30;;;22.35;;
56122;SDS011;42426;46.104;19.656;2023-02-14T14:38:28;36.33;;;22.70;;
56122;SDS011;42426;46.104;19.656;2023-02-14T14:40:55;31.55;;;20.70;;
56122;SDS011;42426;46.104;19.656;2023-02-14T14:45:47;37.08;;;23.30;;
56122;SDS011;42426;46.104;19.656;2023-02-14T14:48:25;30.83;;;19.95;;
56122;SDS011;42426;46.104;19.656;2023-02-14T14:51:21;30.30;;;18.27;;
56122;SDS011;42426;46.104;19.656;2023-02-14T14:56:37;27.38;;;18.70;;
56122;SDS011;42426;46.104;19.656;2023-02-14T15:01:59;40.47;;;25.25;;
56122;SDS011;42426;46.104;19.656;2023-02-14T15:04:29;43.38;;;26.52;;
56122;SDS011;42426;46.104;19.656;2023-02-14T15:06:57;38.92;;;22.95;;
56122;SDS011;42426;46.104;19.656;2023-02-14T15:09:51;46.05;;;25.48;;
56122;SDS011;42426;46.104;19.656;2023-02-14T15:12:18;41.47;;;25.88;;
56122;SDS011;42426;46.104;19.656;2023-02-14T15:15:06;45.53;;;24.55;;
56122;SDS011;42426;46.104;19.656;2023-02-14T15:17:35;44.03;;;27.67;;
56122;SDS011;42426;46.104;19.656;2023-02-14T15:20:03;47.40;;;30.52;;
56122;SDS011;42426;46.104;19.656;2023-02-14T15:22:34;48.78;;;29.98;;
56122;SDS011;42426;46.104;19.656;2023-02-14T15:25:06;55.13;;;35.33;;
56122;SDS011;42426;46.104;19.656;2023-02-14T15:27:53;60.83;;;36.10;;
56122;SDS011;42426;46.104;19.656;2023-02-14T15:32:47;52.20;;;32.47;;
56122;SDS011;42426;46.104;19.656;2023-02-14T15:35:15;65.35;;;37.10;;
56122;SDS011;42426;46.104;19.656;2023-02-14T15:37:45;58.28;;;36.83;;
56122;SDS011;42426;46.104;19.656;2023-02-14T15:40:22;62.30;;;36.63;;
56122;SDS011;42426;46.104;19.656;2023-02-14T15:42:50;64.72;;;38.72;;
56122;SDS011;42426;46.104;19.656;2023-02-14T15:47:51;72.95;;;46.60;;
56122;SDS011;42426;46.104;19.656;2023-02-14T15:50:26;77.60;;;44.35;;
56122;SDS011;42426;46.104;19.656;2023-02-14T15:52:55;72.13;;;44.22;;
56122;SDS011;42426;46.104;19.656;2023-02-14T15:55:49;81.93;;;48.72;;
56122;SDS011;42426;46.104;19.656;2023-02-14T15:58:19;80.50;;;49.20;;
56122;SDS011;42426;46.104;19.656;2023-02-14T16:00:47;79.97;;;49.63;;
56122;SDS011;42426;46.104;19.656;2023-02-14T16:03:20;76.60;;;48.67;;
56122;SDS011;42426;46.104;19.656;2023-02-14T16:05:48;81.28;;;48.25;;
56122;SDS011;42426;46.104;19.656;2023-02-14T16:11:03;92.53;;;55.17;;
56122;SDS011;42426;46.104;19.656;2023-02-14T16:13:38;79.60;;;49.33;;
56122;SDS011;42426;46.104;19.656;2023-02-14T16:18:44;108.80;;;63.92;;
56122;SDS011;42426;46.104;19.656;2023-02-14T16:23:41;108.28;;;60.08;;
56122;SDS011;42426;46.104;19.656;2023-02-14T16:26:12;118.35;;;65.47;;
56122;SDS011;42426;46.104;19.656;2023-02-14T16:28:38;117.03;;;69.25;;
56122;SDS011;42426;46.104;19.656;2023-02-14T16:31:05;107.47;;;66.43;;
56122;SDS011;42426;46.104;19.656;2023-02-14T16:33:38;114.43;;;68.18;;
56122;SDS011;42426;46.104;19.656;2023-02-14T16:38:50;125.43;;;78.03;;
56122;SDS011;42426;46.104;19.656;2023-02-14T16:41:26;130.27;;;81.07;;
56122;SDS011;42426;46.104;19.656;2023-02-14T16:43:54;129.70;;;78.15;;
56122;SDS011;42426;46.104;19.656;2023-02-14T16:46:22;133.05;;;82.85;;
56122;SDS011;42426;46.104;19.656;2023-02-14T16:48:52;134.63;;;79.70;;
56122;SDS011;42426;46.104;19.656;2023-02-14T16:51:19;133.18;;;84.28;;
56122;SDS011;42426;46.104;19.656;2023-02-14T16:53:47;133.25;;;79.32;;
56122;SDS011;42426;46.104;19.656;2023-02-14T16:56:19;151.80;;;95.68;;
56122;SDS011;42426;46.104;19.656;2023-02-14T16:58:49;158.32;;;97.53;;
56122;SDS011;42426;46.104;19.656;2023-02-14T17:01:14;152.05;;;94.25;;
56122;SDS011;42426;46.104;19.656;2023-02-14T17:03:40;157.15;;;94.47;;
56122;SDS011;42426;46.104;19.656;2023-02-14T17:06:07;145.15;;;91.75;;
56122;SDS011;42426;46.104;19.656;2023-02-14T17:08:36;162.48;;;98.95;;
56122;SDS011;42426;46.104;19.656;2023-02-14T17:11:03;157.90;;;95.13;;
56122;SDS011;42426;46.104;19.656;2023-02-14T17:13:29;162.07;;;102.35;;
56122;SDS011;42426;46.104;19.656;2023-02-14T17:15:57;160.10;;;101.15;;
56122;SDS011;42426;46.104;19.656;2023-02-14T17:18:25;166.93;;;106.22;;
56122;SDS011;42426;46.104;19.656;2023-02-14T17:20:52;169.00;;;110.68;;
56122;SDS011;42426;46.104;19.656;2023-02-14T17:23:18;174.30;;;111.78;;
56122;SDS011;42426;46.104;19.656;2023-02-14T17:25:45;169.30;;;106.38;;
56122;SDS011;42426;46.104;19.656;2023-02-14T17:28:11;179.88;;;107.97;;
56122;SDS011;42426;46.104;19.656;2023-02-14T17:30:36;157.38;;;105.47;;
56122;SDS011;42426;46.104;19.656;2023-02-14T17:33:02;168.70;;;109.00;;
56122;SDS011;42426;46.104;19.656;2023-02-14T17:35:28;167.82;;;106.80;;
56122;SDS011;42426;46.104;19.656;2023-02-14T17:37:54;167.02;;;108.05;;
56122;SDS011;42426;46.104;19.656;2023-02-14T17:40:20;165.20;;;107.28;;
56122;SDS011;42426;46.104;19.656;2023-02-14T17:42:46;164.57;;;107.82;;
56122;SDS011;42426;46.104;19.656;2023-02-14T17:45:11;176.90;;;109.47;;
56122;SDS011;42426;46.104;19.656;2023-02-14T17:47:38;175.32;;;109.93;;
56122;SDS011;42426;46.104;19.656;2023-02-14T17:50:05;163.70;;;104.82;;
56122;SDS011;42426;46.104;19.656;2023-02-14T17:52:31;150.93;;;97.40;;